createdAt,value
2018-05-09T00:00:11.656Z,72.06
2018-05-09T00:01:11.652Z,72.88
2018-05-09T00:02:11.654Z,73.27
2018-05-09T00:03:11.639Z,73.65
2018-05-09T00:04:11.634Z,72.50
2018-05-09T00:05:11.628Z,72.79
2018-05-09T00:06:11.624Z,72.98
2018-05-09T00:07:11.618Z,73.17
2018-05-09T00:08:11.612Z,73.94
2018-05-09T00:09:11.606Z,73.84
2018-05-09T00:10:11.600Z,72.98
2018-05-09T00:11:11.594Z,73.17
2018-05-09T00:12:11.589Z,72.60
2018-05-09T00:13:11.583Z,72.22
2018-05-09T00:14:11.577Z,72.02
2018-05-09T00:15:11.570Z,72.12
2018-05-09T00:16:11.565Z,72.12
2018-05-09T00:17:11.560Z,71.55
2018-05-09T00:18:11.553Z,71.55
2018-05-09T00:19:11.547Z,71.45
2018-05-09T00:20:11.541Z,71.45
2018-05-09T00:21:11.537Z,71.45
2018-05-09T00:22:11.530Z,71.16
2018-05-09T00:23:11.526Z,71.83
2018-05-09T00:24:11.517Z,72.69
2018-05-09T00:25:11.512Z,73.36
2018-05-09T00:26:11.506Z,72.41
2018-05-09T00:27:11.499Z,71.16
2018-05-09T00:28:11.493Z,70.87
2018-05-09T00:29:11.489Z,71.36
2018-05-09T00:30:11.484Z,71.45
2018-05-09T00:31:11.474Z,71.36
2018-05-09T00:32:11.469Z,71.26
2018-05-09T00:33:11.463Z,71.51
2018-05-09T00:34:11.457Z,71.70
2018-05-09T00:35:11.449Z,72.28
2018-05-09T00:36:11.446Z,71.99
2018-05-09T00:37:11.437Z,72.56
2018-05-09T00:38:11.431Z,72.41
2018-05-09T00:39:11.426Z,72.02
2018-05-09T00:40:11.420Z,71.16
2018-05-09T00:41:11.412Z,71.16
2018-05-09T00:42:11.406Z,71.64
2018-05-09T00:43:11.399Z,71.83
2018-05-09T00:44:11.392Z,70.40
2018-05-09T00:45:11.386Z,70.68
2018-05-09T00:46:11.385Z,71.73
2018-05-09T00:47:11.373Z,71.55
2018-05-09T00:48:11.367Z,71.36
2018-05-09T00:49:11.366Z,72.69
2018-05-09T00:50:11.390Z,72.02
2018-05-09T00:51:11.352Z,71.93
2018-05-09T00:52:11.342Z,72.02
2018-05-09T00:53:11.336Z,72.41
2018-05-09T00:54:11.329Z,72.37
2018-05-09T00:55:11.323Z,73.27
2018-05-09T00:56:11.409Z,71.61
2018-05-09T00:57:11.311Z,72.08
2018-05-09T00:58:11.305Z,72.85
2018-05-09T00:59:11.297Z,73.61
2018-05-09T01:00:11.292Z,73.33
2018-05-09T01:01:11.286Z,72.56
2018-05-09T01:02:11.280Z,72.56
2018-05-09T01:03:11.273Z,73.33
2018-05-09T01:04:11.270Z,73.14
2018-05-09T01:05:11.261Z,72.94
2018-05-09T01:06:11.255Z,72.37
2018-05-09T01:07:11.248Z,72.08
2018-05-09T01:08:11.242Z,72.47
2018-05-09T01:09:11.236Z,72.56
2018-05-09T01:10:11.231Z,72.47
2018-05-09T01:11:11.224Z,73.04
2018-05-09T01:12:11.217Z,72.66
2018-05-09T01:13:11.211Z,73.80
2018-05-09T01:14:11.205Z,73.99
2018-05-09T01:15:11.198Z,74.28
2018-05-09T01:16:11.193Z,73.33
2018-05-09T01:17:11.186Z,73.43
2018-05-09T01:18:11.183Z,73.99
2018-05-09T01:19:11.173Z,72.94
2018-05-09T01:20:11.167Z,73.14
2018-05-09T01:21:11.161Z,73.23
2018-05-09T01:22:11.195Z,72.56
2018-05-09T01:23:11.149Z,72.08
2018-05-09T01:24:11.142Z,72.37
2018-05-09T01:25:11.136Z,71.51
2018-05-09T01:26:11.134Z,71.51
2018-05-09T01:27:11.122Z,71.70
2018-05-09T01:28:11.116Z,71.51
2018-05-09T01:29:11.110Z,72.47
2018-05-09T01:30:11.103Z,72.18
2018-05-09T01:31:11.098Z,72.28
2018-05-09T01:32:11.090Z,74.09
2018-05-09T01:33:11.084Z,74.76
2018-05-09T01:34:11.078Z,74.05
2018-05-09T01:35:11.071Z,74.44
2018-05-09T01:36:11.065Z,74.66
2018-05-09T01:37:11.059Z,75.59
2018-05-09T01:38:11.053Z,75.87
2018-05-09T01:39:11.045Z,76.06
2018-05-09T01:40:11.040Z,76.16
2018-05-09T01:41:11.033Z,76.35
2018-05-09T01:42:11.030Z,75.96
2018-05-09T01:43:11.020Z,75.87
2018-05-09T01:44:11.014Z,76.25
2018-05-09T01:45:11.008Z,76.79
2018-05-09T01:46:11.005Z,76.88
2018-05-09T01:47:10.999Z,77.45
2018-05-09T01:48:10.989Z,77.36
2018-05-09T01:49:10.987Z,77.65
2018-05-09T01:50:10.977Z,78.13
2018-05-09T01:51:10.969Z,77.45
2018-05-09T01:52:10.964Z,78.31
2018-05-09T01:53:10.957Z,78.31
2018-05-09T01:54:10.951Z,78.79
2018-05-09T01:55:10.944Z,79.27
2018-05-09T01:56:11.011Z,79.17
2018-05-09T01:57:10.931Z,79.75
2018-05-09T01:58:10.925Z,79.36
2018-05-09T01:59:10.922Z,79.23
2018-05-09T02:00:10.911Z,79.71
2018-05-09T02:01:10.904Z,79.99
2018-05-09T02:02:10.898Z,79.80
2018-05-09T02:03:10.892Z,79.52
2018-05-09T02:04:10.884Z,79.23
2018-05-09T02:05:10.877Z,79.99
2018-05-09T02:06:10.969Z,79.14
2018-05-09T02:07:10.864Z,78.47
2018-05-09T02:08:10.858Z,78.89
2018-05-09T02:09:10.855Z,79.33
2018-05-09T02:10:10.844Z,79.80
2018-05-09T02:11:10.837Z,80.47
2018-05-09T02:12:10.830Z,80.47
2018-05-09T02:13:10.823Z,80.76
2018-05-09T02:14:10.817Z,80.19
2018-05-09T02:15:10.848Z,79.90
2018-05-09T02:16:10.807Z,78.85
2018-05-09T02:17:10.797Z,78.31
2018-05-09T02:18:10.789Z,78.31
2018-05-09T02:19:10.783Z,77.36
2018-05-09T02:20:10.775Z,77.65
2018-05-09T02:21:10.768Z,77.26
2018-05-09T02:22:10.762Z,76.98
2018-05-09T02:23:10.754Z,76.31
2018-05-09T02:24:10.787Z,75.93
2018-05-09T02:25:10.741Z,75.74
2018-05-09T02:26:10.734Z,75.93
2018-05-09T02:27:10.726Z,75.16
2018-05-09T02:28:10.720Z,75.74
2018-05-09T02:29:10.714Z,75.35
2018-05-09T02:30:10.710Z,75.07
2018-05-09T02:31:10.715Z,74.98
2018-05-09T02:32:10.691Z,75.64
2018-05-09T02:33:10.684Z,75.74
2018-05-09T02:34:10.681Z,76.21
2018-05-09T02:35:10.687Z,76.21
2018-05-09T02:36:10.663Z,76.98
2018-05-09T02:37:10.656Z,76.79
2018-05-09T02:38:10.651Z,78.31
2018-05-09T02:39:10.642Z,78.51
2018-05-09T02:40:10.635Z,78.41
2018-05-09T02:41:10.629Z,78.70
2018-05-09T02:42:10.622Z,78.79
2018-05-09T02:43:10.615Z,78.13
2018-05-09T02:44:10.608Z,78.13
2018-05-09T02:45:10.601Z,78.79
2018-05-09T02:46:10.596Z,78.85
2018-05-09T02:47:10.588Z,79.52
2018-05-09T02:48:10.581Z,79.43
2018-05-09T02:49:10.574Z,79.99
2018-05-09T02:50:10.567Z,79.90
2018-05-09T02:51:10.560Z,79.23
2018-05-09T02:52:10.553Z,80.19
2018-05-09T02:53:10.547Z,80.38
2018-05-09T02:54:10.540Z,79.80
2018-05-09T02:55:10.533Z,79.61
2018-05-09T02:56:10.534Z,80.66
2018-05-09T02:57:10.519Z,80.09
2018-05-09T02:58:10.513Z,80.57
2018-05-09T02:59:10.510Z,81.52
2018-05-09T03:00:10.500Z,82.48
2018-05-09T03:01:10.491Z,81.14
2018-05-09T03:02:10.485Z,81.52
2018-05-09T03:03:10.478Z,81.52
2018-05-09T03:04:10.470Z,81.67
2018-05-09T03:05:10.464Z,81.58
2018-05-09T03:06:10.456Z,81.58
2018-05-09T03:07:10.449Z,82.06
2018-05-09T03:08:10.442Z,81.67
2018-05-09T03:09:10.434Z,82.82
2018-05-09T03:10:10.428Z,82.72
2018-05-09T03:11:10.421Z,82.91
2018-05-09T03:12:10.413Z,83.20
2018-05-09T03:13:10.406Z,83.39
2018-05-09T03:14:10.398Z,83.29
2018-05-09T03:15:10.390Z,84.44
2018-05-09T03:16:10.384Z,85.11
2018-05-09T03:17:10.377Z,84.92
2018-05-09T03:18:10.370Z,85.01
2018-05-09T03:19:10.361Z,85.39
2018-05-09T03:20:10.359Z,85.58
2018-05-09T03:21:10.348Z,85.01
2018-05-09T03:22:10.341Z,85.49
2018-05-09T03:23:10.334Z,85.49
2018-05-09T03:24:10.326Z,85.01
2018-05-09T03:25:10.319Z,85.30
2018-05-09T03:26:10.312Z,85.01
2018-05-09T03:27:10.304Z,84.53
2018-05-09T03:28:10.298Z,84.44
2018-05-09T03:29:10.290Z,83.20
2018-05-09T03:30:10.291Z,83.48
2018-05-09T03:31:10.278Z,83.58
2018-05-09T03:32:10.268Z,83.01
2018-05-09T03:33:10.265Z,82.82
2018-05-09T03:34:10.254Z,83.29
2018-05-09T03:35:10.246Z,84.16
2018-05-09T03:36:10.241Z,83.87
2018-05-09T03:37:10.232Z,83.77
2018-05-09T03:38:10.225Z,83.58
2018-05-09T03:39:10.218Z,84.06
2018-05-09T03:40:10.211Z,83.58
2018-05-09T03:41:10.204Z,83.48
2018-05-09T03:42:10.197Z,83.11
2018-05-09T03:43:10.189Z,83.87
2018-05-09T03:44:10.182Z,84.63
2018-05-09T03:45:10.175Z,84.16
2018-05-09T03:46:10.168Z,84.53
2018-05-09T03:47:10.160Z,84.63
2018-05-09T03:48:10.153Z,84.34
2018-05-09T03:49:10.147Z,85.49
2018-05-09T03:50:10.138Z,85.49
2018-05-09T03:51:10.131Z,83.39
2018-05-09T03:52:10.124Z,82.82
2018-05-09T03:53:10.116Z,82.53
2018-05-09T03:54:10.109Z,83.11
2018-05-09T03:55:10.102Z,84.34
2018-05-09T03:56:10.094Z,83.77
2018-05-09T03:57:10.087Z,83.01
2018-05-09T03:58:10.079Z,82.24
2018-05-09T03:59:10.073Z,82.15
2018-05-09T04:00:10.064Z,82.34
2018-05-09T04:01:10.057Z,82.24
2018-05-09T04:02:10.049Z,81.96
2018-05-09T04:03:10.040Z,82.53
2018-05-09T04:04:10.033Z,82.34
2018-05-09T04:05:10.025Z,82.43
2018-05-09T04:06:10.018Z,81.67
2018-05-09T04:07:10.010Z,81.48
2018-05-09T04:08:10.001Z,82.34
2018-05-09T04:09:09.994Z,82.63
2018-05-09T04:10:09.987Z,82.91
2018-05-09T04:11:09.979Z,82.34
2018-05-09T04:12:09.971Z,83.01
2018-05-09T04:13:10.052Z,83.73
2018-05-09T04:14:09.956Z,84.59
2018-05-09T04:15:09.949Z,85.25
2018-05-09T04:16:09.941Z,84.97
2018-05-09T04:17:09.935Z,85.45
2018-05-09T04:18:09.929Z,86.59
2018-05-09T04:19:09.917Z,86.11
2018-05-09T04:20:09.910Z,86.30
2018-05-09T04:21:09.903Z,86.69
2018-05-09T04:22:09.895Z,86.21
2018-05-09T04:23:09.888Z,85.35
2018-05-09T04:24:09.880Z,85.06
2018-05-09T04:25:09.873Z,85.64
2018-05-09T04:26:09.866Z,86.21
2018-05-09T04:27:09.858Z,85.58
2018-05-09T04:28:09.925Z,85.83
2018-05-09T04:29:09.843Z,85.97
2018-05-09T04:30:09.836Z,85.68
2018-05-09T04:31:09.828Z,84.06
2018-05-09T04:32:09.822Z,83.77
2018-05-09T04:33:09.813Z,83.48
2018-05-09T04:34:09.810Z,82.91
2018-05-09T04:35:09.800Z,83.48
2018-05-09T04:36:09.807Z,84.16
2018-05-09T04:37:09.784Z,84.34
2018-05-09T04:38:09.777Z,84.63
2018-05-09T04:39:09.773Z,84.92
2018-05-09T04:40:09.765Z,85.68
2018-05-09T04:41:09.754Z,85.21
2018-05-09T04:42:09.747Z,81.58
2018-05-09T04:43:09.739Z,79.90
2018-05-09T04:44:09.732Z,79.52
2018-05-09T04:45:09.725Z,78.37
2018-05-09T04:46:09.718Z,77.80
2018-05-09T04:47:09.713Z,78.94
2018-05-09T04:48:09.702Z,78.70
2018-05-09T04:49:09.700Z,80.13
2018-05-09T04:50:09.688Z,80.04
2018-05-09T04:51:09.680Z,79.36
2018-05-09T04:52:09.673Z,79.85
2018-05-09T04:53:09.675Z,79.56
2018-05-09T04:54:09.659Z,79.65
2018-05-09T04:55:09.651Z,80.32
2018-05-09T04:56:09.644Z,80.22
2018-05-09T04:57:09.638Z,80.80
2018-05-09T04:58:09.631Z,80.61
2018-05-09T04:59:09.623Z,78.22
2018-05-09T05:00:09.616Z,77.26
2018-05-09T05:01:09.610Z,77.08
2018-05-09T05:02:09.608Z,77.55
2018-05-09T05:03:09.596Z,77.08
2018-05-09T05:04:09.589Z,76.88
2018-05-09T05:05:09.582Z,78.16
2018-05-09T05:06:09.581Z,77.30
2018-05-09T05:07:09.576Z,77.97
2018-05-09T05:08:09.562Z,76.64
2018-05-09T05:09:09.556Z,76.73
2018-05-09T05:10:09.549Z,76.45
2018-05-09T05:11:09.541Z,76.64
2018-05-09T05:12:09.536Z,76.54
2018-05-09T05:13:09.530Z,76.06
2018-05-09T05:14:09.522Z,75.39
2018-05-09T05:15:09.515Z,74.24
2018-05-09T05:16:09.509Z,74.34
2018-05-09T05:17:09.502Z,74.91
2018-05-09T05:18:09.496Z,75.20
2018-05-09T05:19:09.490Z,74.53
2018-05-09T05:20:09.483Z,74.38
2018-05-09T05:21:09.476Z,74.38
2018-05-09T05:22:09.474Z,75.52
2018-05-09T05:23:09.469Z,76.67
2018-05-09T05:24:09.457Z,74.66
2018-05-09T05:25:09.451Z,75.81
2018-05-09T05:26:09.445Z,75.81
2018-05-09T05:27:09.502Z,76.77
2018-05-09T05:28:09.432Z,76.00
2018-05-09T05:29:09.426Z,76.96
2018-05-09T05:30:09.419Z,76.96
2018-05-09T05:31:09.417Z,75.81
2018-05-09T05:32:09.407Z,74.57
2018-05-09T05:33:09.401Z,72.79
2018-05-09T05:34:09.396Z,73.08
2018-05-09T05:35:09.389Z,75.37
2018-05-09T05:36:09.385Z,73.75
2018-05-09T05:37:09.377Z,74.22
2018-05-09T05:38:09.371Z,75.56
2018-05-09T05:39:09.366Z,76.23
2018-05-09T05:40:09.359Z,75.66
2018-05-09T05:41:09.353Z,75.95
2018-05-09T05:42:09.347Z,73.36
2018-05-09T05:43:09.341Z,73.88
2018-05-09T05:44:09.335Z,74.07
2018-05-09T05:45:09.420Z,71.77
2018-05-09T05:46:09.325Z,70.81
2018-05-09T05:47:09.318Z,69.48
2018-05-09T05:48:09.313Z,69.76
2018-05-09T05:49:09.308Z,71.01
2018-05-09T05:50:09.302Z,71.81
2018-05-09T05:51:09.298Z,71.01
2018-05-09T05:52:09.291Z,70.28
2018-05-09T05:53:09.286Z,70.56
2018-05-09T05:54:09.283Z,69.60
2018-05-09T05:55:09.280Z,69.70
2018-05-09T05:56:09.333Z,69.70
2018-05-09T05:57:09.266Z,69.13
2018-05-09T05:58:09.260Z,69.51
2018-05-09T05:59:09.254Z,69.83
2018-05-09T06:00:09.249Z,69.99
2018-05-09T06:01:09.244Z,69.45
2018-05-09T06:02:09.243Z,70.09
2018-05-09T06:03:09.235Z,69.80
2018-05-09T06:04:09.229Z,70.47
2018-05-09T06:05:09.225Z,71.08
2018-05-09T06:06:09.219Z,71.46
2018-05-09T06:07:09.213Z,72.23
2018-05-09T06:08:09.210Z,72.13
2018-05-09T06:09:09.213Z,71.37
2018-05-09T06:10:09.198Z,72.52
2018-05-09T06:11:09.192Z,71.66
2018-05-09T06:12:09.192Z,72.61
2018-05-09T06:13:09.183Z,72.42
2018-05-09T06:14:09.178Z,72.61
2018-05-09T06:15:09.172Z,71.94
2018-05-09T06:16:09.168Z,71.59
2018-05-09T06:17:09.199Z,71.11
2018-05-09T06:18:09.158Z,71.40
2018-05-09T06:19:09.152Z,71.02
2018-05-09T06:20:09.147Z,71.50
2018-05-09T06:21:09.145Z,71.21
2018-05-09T06:22:09.139Z,70.44
2018-05-09T06:23:09.133Z,70.92
2018-05-09T06:24:09.204Z,70.96
2018-05-09T06:25:09.124Z,70.96
2018-05-09T06:26:09.121Z,70.29
2018-05-09T06:27:09.114Z,69.90
2018-05-09T06:28:09.110Z,70.29
2018-05-09T06:29:09.106Z,71.63
2018-05-09T06:30:09.102Z,71.05
2018-05-09T06:31:09.097Z,71.25
2018-05-09T06:32:09.092Z,70.76
2018-05-09T06:33:09.089Z,70.23
2018-05-09T06:34:09.096Z,69.13
2018-05-09T06:35:09.083Z,69.84
2018-05-09T06:36:09.075Z,70.70
2018-05-09T06:37:09.073Z,69.65
2018-05-09T06:38:09.068Z,70.32
2018-05-09T06:39:09.063Z,69.84
2018-05-09T06:40:09.063Z,69.17
2018-05-09T06:41:09.056Z,70.32
2018-05-09T06:42:09.052Z,70.70
2018-05-09T06:43:09.047Z,69.93
2018-05-09T06:44:09.044Z,69.40
2018-05-09T06:45:09.040Z,69.17
2018-05-09T06:46:09.037Z,69.40
2018-05-09T06:47:09.032Z,69.30
2018-05-09T06:48:09.031Z,69.40
2018-05-09T06:49:09.026Z,69.20
2018-05-09T06:50:09.022Z,69.40
2018-05-09T06:51:09.017Z,69.40
2018-05-09T06:52:09.014Z,69.20
2018-05-09T06:53:09.011Z,69.11
2018-05-09T06:54:09.007Z,68.91
2018-05-09T06:55:09.003Z,69.49
2018-05-09T06:56:09.000Z,69.68
2018-05-09T06:57:08.996Z,69.40
2018-05-09T06:58:08.995Z,70.29
2018-05-09T06:59:09.065Z,69.91
2018-05-09T07:00:08.987Z,68.95
2018-05-09T07:01:08.985Z,68.85
2018-05-09T07:02:08.981Z,68.95
2018-05-09T07:03:08.979Z,68.76
2018-05-09T07:04:08.974Z,68.76
2018-05-09T07:05:08.972Z,68.76
2018-05-09T07:06:09.042Z,67.74
2018-05-09T07:07:08.970Z,66.87
2018-05-09T07:08:08.964Z,66.68
2018-05-09T07:09:08.963Z,67.64
2018-05-09T07:10:08.962Z,66.97
2018-05-09T07:11:08.960Z,67.35
2018-05-09T07:12:08.959Z,67.35
2018-05-09T07:13:08.960Z,66.42
2018-05-09T07:14:08.960Z,66.42
2018-05-09T07:15:08.960Z,67.48
2018-05-09T07:16:08.962Z,66.14
2018-05-09T07:17:08.964Z,65.08
2018-05-09T07:18:08.967Z,64.53
2018-05-09T07:19:08.969Z,63.67
2018-05-09T07:20:08.971Z,63.67
2018-05-09T07:21:08.975Z,64.43
2018-05-09T07:22:09.024Z,63.89
2018-05-09T07:23:09.016Z,63.41
2018-05-09T07:24:08.989Z,62.57
2018-05-09T07:25:09.003Z,62.87
2018-05-09T07:26:08.997Z,61.80
2018-05-09T07:27:09.001Z,62.29
2018-05-09T07:28:09.010Z,62.48
2018-05-09T07:29:09.014Z,62.67
2018-05-09T07:30:09.020Z,63.47
2018-05-09T07:31:09.026Z,60.42
2018-05-09T07:32:09.036Z,60.52
2018-05-09T07:33:09.040Z,60.32
2018-05-09T07:34:09.048Z,59.97
2018-05-09T07:35:09.061Z,58.91
2018-05-09T07:36:09.063Z,59.39
2018-05-09T07:37:09.071Z,58.72
2018-05-09T07:38:09.079Z,58.42
2018-05-09T07:39:09.087Z,56.88
2018-05-09T07:40:09.096Z,58.23
2018-05-09T07:41:09.104Z,58.23
2018-05-09T07:42:09.162Z,58.81
2018-05-09T07:43:09.121Z,58.91
2018-05-09T07:44:09.130Z,58.62
2018-05-09T07:45:09.139Z,57.59
2018-05-09T07:46:09.150Z,57.39
2018-05-09T07:47:09.158Z,57.59
2018-05-09T07:48:09.167Z,58.65
2018-05-09T07:49:09.177Z,56.74
2018-05-09T07:50:09.190Z,56.07
2018-05-09T07:51:09.196Z,55.68
2018-05-09T07:52:09.206Z,57.62
2018-05-09T07:53:09.217Z,56.10
2018-05-09T07:54:09.227Z,57.96
2018-05-09T07:55:09.237Z,55.55
2018-05-09T07:56:09.250Z,54.22
2018-05-09T07:57:09.258Z,54.71
2018-05-09T07:58:09.270Z,53.83
2018-05-09T07:59:09.281Z,54.61
2018-05-09T08:00:09.292Z,55.02
2018-05-09T08:01:09.304Z,53.86
2018-05-09T08:02:09.316Z,53.31
2018-05-09T08:03:09.326Z,51.66
2018-05-09T08:04:09.338Z,52.27
2018-05-09T08:05:09.350Z,50.14
2018-05-09T08:06:09.382Z,50.14
2018-05-09T08:07:09.375Z,51.13
2018-05-09T08:08:09.385Z,50.35
2018-05-09T08:09:09.398Z,49.97
2018-05-09T08:10:09.410Z,48.90
2018-05-09T08:11:09.422Z,49.87
2018-05-09T08:12:09.437Z,51.13
2018-05-09T08:13:09.450Z,49.02
2018-05-09T08:14:09.461Z,48.35
2018-05-09T08:15:09.473Z,48.93
2018-05-09T08:16:09.487Z,48.25
2018-05-09T08:17:09.500Z,49.41
2018-05-09T08:18:09.513Z,49.34
2018-05-09T08:19:09.526Z,48.27
2018-05-09T08:20:09.538Z,47.50
2018-05-09T08:21:09.552Z,48.76
2018-05-09T08:22:09.565Z,47.91
2018-05-09T08:23:09.578Z,49.46
2018-05-09T08:24:09.592Z,49.29
2018-05-09T08:25:09.610Z,49.68
2018-05-09T08:26:09.620Z,46.38
2018-05-09T08:27:09.633Z,46.48
2018-05-09T08:28:09.647Z,46.48
2018-05-09T08:29:09.662Z,45.12
2018-05-09T08:30:09.675Z,45.41
2018-05-09T08:31:09.689Z,44.03
2018-05-09T08:32:09.703Z,43.04
2018-05-09T08:33:09.717Z,44.68
2018-05-09T08:34:09.730Z,45.56
2018-05-09T08:35:09.743Z,46.75
2018-05-09T08:36:09.799Z,42.21
2018-05-09T08:37:09.773Z,42.79
2018-05-09T08:38:09.786Z,41.49
2018-05-09T08:39:09.806Z,43.82
2018-05-09T08:40:09.816Z,43.82
2018-05-09T08:41:09.828Z,45.58
2018-05-09T08:42:09.843Z,45.87
2018-05-09T08:43:09.897Z,44.90
2018-05-09T08:44:09.871Z,45.21
2018-05-09T08:45:09.886Z,45.14
2018-05-09T08:46:09.907Z,43.20
2018-05-09T08:47:09.915Z,43.71
2018-05-09T08:48:09.930Z,41.28
2018-05-09T08:49:09.949Z,40.69
2018-05-09T08:50:09.964Z,40.67
2018-05-09T08:51:09.975Z,41.84
2018-05-09T08:52:09.990Z,42.44
2018-05-09T08:53:10.006Z,40.87
2018-05-09T08:54:10.021Z,41.36
2018-05-09T08:55:10.036Z,43.90
2018-05-09T08:56:10.051Z,41.57
2018-05-09T08:57:10.068Z,40.52
2018-05-09T08:58:10.083Z,39.06
2018-05-09T08:59:10.099Z,41.61
2018-05-09T09:00:10.113Z,40.15
2018-05-09T09:01:10.129Z,41.22
2018-05-09T09:02:10.146Z,38.91
2018-05-09T09:03:10.161Z,37.93
2018-05-09T09:04:10.177Z,39.03
2018-05-09T09:05:10.194Z,37.37
2018-05-09T09:06:10.210Z,39.04
2018-05-09T09:07:10.225Z,35.03
2018-05-09T09:08:10.242Z,35.50
2018-05-09T09:09:10.258Z,39.00
2018-05-09T09:10:10.274Z,37.27
2018-05-09T09:11:10.290Z,38.73
2018-05-09T09:12:10.306Z,37.76
2018-05-09T09:13:10.323Z,37.27
2018-05-09T09:14:10.339Z,36.10
2018-05-09T09:15:10.354Z,37.27
2018-05-09T09:16:10.371Z,39.12
2018-05-09T09:17:10.388Z,37.27
2018-05-09T09:18:10.402Z,38.07
2018-05-09T09:19:10.418Z,36.51
2018-05-09T09:20:10.439Z,37.76
2018-05-09T09:21:10.451Z,37.85
2018-05-09T09:22:10.467Z,38.75
2018-05-09T09:23:10.485Z,37.29
2018-05-09T09:24:10.499Z,41.57
2018-05-09T09:25:10.516Z,41.38
2018-05-09T09:26:10.533Z,41.60
2018-05-09T09:27:10.549Z,39.28
2018-05-09T09:28:10.566Z,38.10
2018-05-09T09:29:10.674Z,38.12
2018-05-09T09:30:10.607Z,36.16
2018-05-09T09:31:10.617Z,37.91
2018-05-09T09:32:10.641Z,37.91
2018-05-09T09:33:10.652Z,35.94
2018-05-09T09:34:10.670Z,37.62
2018-05-09T09:35:10.688Z,37.13
2018-05-09T09:36:10.704Z,37.79
2018-05-09T09:37:10.722Z,37.21
2018-05-09T09:38:10.740Z,39.08
2018-05-09T09:39:10.757Z,36.65
2018-05-09T09:40:10.775Z,36.74
2018-05-09T09:41:10.801Z,35.78
2018-05-09T09:42:10.811Z,37.85
2018-05-09T09:43:10.828Z,34.34
2018-05-09T09:44:10.846Z,34.31
2018-05-09T09:45:10.867Z,34.58
2018-05-09T09:46:10.882Z,37.48
2018-05-09T09:47:10.899Z,37.87
2018-05-09T09:48:10.920Z,37.50
2018-05-09T09:49:10.934Z,37.50
2018-05-09T09:50:10.952Z,35.57
2018-05-09T09:51:10.968Z,38.10
2018-05-09T09:52:10.987Z,38.32
2018-05-09T09:53:11.003Z,37.75
2018-05-09T09:54:11.021Z,38.14
2018-05-09T09:55:11.039Z,38.94
2018-05-09T09:56:11.056Z,37.87
2018-05-09T09:57:11.074Z,37.89
2018-05-09T09:58:11.093Z,35.16
2018-05-09T09:59:11.111Z,34.96
2018-05-09T10:00:11.129Z,35.45
2018-05-09T10:01:11.148Z,34.67
2018-05-09T10:02:11.166Z,32.91
2018-05-09T10:03:11.189Z,34.75
2018-05-09T10:04:11.203Z,35.33
2018-05-09T10:05:11.221Z,34.36
2018-05-09T10:06:11.241Z,35.04
2018-05-09T10:07:11.258Z,36.51
2018-05-09T10:08:11.330Z,36.99
2018-05-09T10:09:11.296Z,36.41
2018-05-09T10:10:11.314Z,36.51
2018-05-09T10:11:11.333Z,35.51
2018-05-09T10:12:11.352Z,36.08
2018-05-09T10:13:11.371Z,34.12
2018-05-09T10:14:11.389Z,33.14
2018-05-09T10:15:11.407Z,33.54
2018-05-09T10:16:11.503Z,34.61
2018-05-09T10:17:11.445Z,34.71
2018-05-09T10:18:11.465Z,34.31
2018-05-09T10:19:11.486Z,35.47
2018-05-09T10:20:11.504Z,35.38
2018-05-09T10:21:11.522Z,34.11
2018-05-09T10:22:11.538Z,35.39
2018-05-09T10:23:11.567Z,34.81
2018-05-09T10:24:11.574Z,33.93
2018-05-09T10:25:11.593Z,33.64
2018-05-09T10:26:11.611Z,33.25
2018-05-09T10:27:11.629Z,35.57
2018-05-09T10:28:11.728Z,35.59
2018-05-09T10:29:11.666Z,33.15
2018-05-09T10:30:11.685Z,33.07
2018-05-09T10:31:11.702Z,33.26
2018-05-09T10:32:11.721Z,34.05
2018-05-09T10:33:11.740Z,35.22
2018-05-09T10:34:11.757Z,36.31
2018-05-09T10:35:11.776Z,32.11
2018-05-09T10:36:11.794Z,32.89
2018-05-09T10:37:11.813Z,32.29
2018-05-09T10:38:11.832Z,33.36
2018-05-09T10:39:11.849Z,35.43
2018-05-09T10:40:11.868Z,32.99
2018-05-09T10:41:11.888Z,34.28
2018-05-09T10:42:11.905Z,34.28
2018-05-09T10:43:11.923Z,32.91
2018-05-09T10:44:11.942Z,31.64
2018-05-09T10:45:11.960Z,32.82
2018-05-09T10:46:11.979Z,33.12
2018-05-09T10:47:11.999Z,30.97
2018-05-09T10:48:12.016Z,31.35
2018-05-09T10:49:12.035Z,31.74
2018-05-09T10:50:12.054Z,32.81
2018-05-09T10:51:12.079Z,32.71
2018-05-09T10:52:12.091Z,34.47
2018-05-09T10:53:12.110Z,33.01
2018-05-09T10:54:12.129Z,32.71
2018-05-09T10:55:12.149Z,33.30
2018-05-09T10:56:12.167Z,32.81
2018-05-09T10:57:12.192Z,34.47
2018-05-09T10:58:12.205Z,34.58
2018-05-09T10:59:12.223Z,32.84
2018-05-09T11:00:12.249Z,31.77
2018-05-09T11:01:12.263Z,32.35
2018-05-09T11:02:12.281Z,33.33
2018-05-09T11:03:12.300Z,31.07
2018-05-09T11:04:12.319Z,30.86
2018-05-09T11:05:12.488Z,32.03
2018-05-09T11:06:12.358Z,32.23
2018-05-09T11:07:12.376Z,30.96
2018-05-09T11:08:12.395Z,30.77
2018-05-09T11:09:12.414Z,31.26
2018-05-09T11:10:12.433Z,32.03
2018-05-09T11:11:12.451Z,29.39
2018-05-09T11:12:12.470Z,30.08
2018-05-09T11:13:12.489Z,30.08
2018-05-09T11:14:12.508Z,30.86
2018-05-09T11:15:12.529Z,30.86
2018-05-09T11:16:12.544Z,29.08
2018-05-09T11:17:12.566Z,30.26
2018-05-09T11:18:12.583Z,29.46
2018-05-09T11:19:12.600Z,29.47
2018-05-09T11:20:12.621Z,30.06
2018-05-09T11:21:12.638Z,28.81
2018-05-09T11:22:12.656Z,30.66
2018-05-09T11:23:12.677Z,29.79
2018-05-09T11:24:12.692Z,31.05
2018-05-09T11:25:12.711Z,29.00
2018-05-09T11:26:12.734Z,29.31
2018-05-09T11:27:12.748Z,29.31
2018-05-09T11:28:12.770Z,27.36
2018-05-09T11:29:12.789Z,28.53
2018-05-09T11:30:12.803Z,29.50
2018-05-09T11:31:12.821Z,28.54
2018-05-09T11:32:12.839Z,29.42
2018-05-09T11:33:12.858Z,26.21
2018-05-09T11:34:12.876Z,27.39
2018-05-09T11:35:12.898Z,26.22
2018-05-09T11:36:12.921Z,29.27
2018-05-09T11:37:12.932Z,27.81
2018-05-09T11:38:12.950Z,25.26
2018-05-09T11:39:12.975Z,26.23
2018-05-09T11:40:12.987Z,26.60
2018-05-09T11:41:13.005Z,26.40
2018-05-09T11:42:13.025Z,27.19
2018-05-09T11:43:13.042Z,26.31
2018-05-09T11:44:13.062Z,25.32
2018-05-09T11:45:13.080Z,25.42
2018-05-09T11:46:13.098Z,26.97
2018-05-09T11:47:13.116Z,28.44
2018-05-09T11:48:13.134Z,30.02
2018-05-09T11:49:13.153Z,28.77
2018-05-09T11:50:13.171Z,27.69
2018-05-09T11:51:13.189Z,29.46
2018-05-09T11:52:13.207Z,27.20
2018-05-09T11:53:13.261Z,29.64
2018-05-09T11:54:13.244Z,28.29
2018-05-09T11:55:13.262Z,28.50
2018-05-09T11:56:13.280Z,28.59
2018-05-09T11:57:13.298Z,29.97
2018-05-09T11:58:13.317Z,25.56
2018-05-09T11:59:13.334Z,26.05
2018-05-09T12:00:13.353Z,25.95
2018-05-09T12:01:13.371Z,28.89
2018-05-09T12:02:13.486Z,28.31
2018-05-09T12:03:13.408Z,28.12
2018-05-09T12:04:13.427Z,23.81
2018-05-09T12:05:13.445Z,24.68
2018-05-09T12:06:13.463Z,24.09
2018-05-09T12:07:13.481Z,24.47
2018-05-09T12:08:13.499Z,26.03
2018-05-09T12:09:13.517Z,27.01
2018-05-09T12:10:13.535Z,26.64
2018-05-09T12:11:13.552Z,23.61
2018-05-09T12:12:13.571Z,24.49
2018-05-09T12:13:13.593Z,23.22
2018-05-09T12:14:13.607Z,24.66
2018-05-09T12:15:13.624Z,27.11
2018-05-09T12:16:13.642Z,26.43
2018-05-09T12:17:13.660Z,24.38
2018-05-09T12:18:13.678Z,24.79
2018-05-09T12:19:13.695Z,23.41
2018-05-09T12:20:13.713Z,23.99
2018-05-09T12:21:13.731Z,24.87
2018-05-09T12:22:13.749Z,23.80
2018-05-09T12:23:13.766Z,25.35
2018-05-09T12:24:13.783Z,24.47
2018-05-09T12:25:13.801Z,27.03
2018-05-09T12:26:13.819Z,23.59
2018-05-09T12:27:13.835Z,21.13
2018-05-09T12:28:13.853Z,21.72
2018-05-09T12:29:13.870Z,23.10
2018-05-09T12:30:13.887Z,23.10
2018-05-09T12:31:13.903Z,22.61
2018-05-09T12:32:13.920Z,24.08
2018-05-09T12:33:13.938Z,23.80
2018-05-09T12:34:13.955Z,25.37
2018-05-09T12:35:13.973Z,27.14
2018-05-09T12:36:13.988Z,25.49
2018-05-09T12:37:14.005Z,26.28
2018-05-09T12:38:14.022Z,25.12
2018-05-09T12:39:14.039Z,23.85
2018-05-09T12:40:14.055Z,23.84
2018-05-09T12:41:14.079Z,23.25
2018-05-09T12:42:14.090Z,26.28
2018-05-09T12:43:14.104Z,22.16
2018-05-09T12:44:14.122Z,22.05
2018-05-09T12:45:14.138Z,22.92
2018-05-09T12:46:14.155Z,22.63
2018-05-09T12:47:14.172Z,23.22
2018-05-09T12:48:14.186Z,23.92
2018-05-09T12:49:14.206Z,23.12
2018-05-09T12:50:14.220Z,24.20
2018-05-09T12:51:14.235Z,25.39
2018-05-09T12:52:14.251Z,23.82